Aérodrome :
LOGIN :

S'inscrire | Disclaimer

   EN    FR    IT 

 










Légende :    VFR   VFR Marginal   IFR   IFR Intensif   IFR Très Intensif
Visi : 
Plafond : 
>= 8 km
>= 3000ft
5 à 8 km
1000 à 3000 ft
1500m à 5 km
500 à 1000 ft
800 à 1500m
200 à 500 ft
< 800m
< 200 ft
Symboles :   Orages  Brouillard  Fortes neiges  Fortes précipitations  Vent > 20 kt
SIGMETs :   Divers  Orages  Givrage  Turbulence  Onde Orograph.  Cendres Volcan.






- Altitude de l'aérodrome : 63 ft
- Code IATA : BZM


EHWO - Woensdrecht Airbase

DERNIER METAR :
  • 190704Z AUTO 04009KT 340V090 9999 FEW009 SCT010 BKN012 15/13 Q1017 GRN BECMG BKN021

METARs EXPIRÉS :
  • 190655Z AUTO 03009KT 340V090 9999 SCT009 OVC010 14/13 Q1017 GRN
  • 190625Z AUTO 03009KT 340V080 7000 HZ FEW006 OVC007 14/13 Q1017 GRN
  • 190602Z AUTO 03008KT 330V070 6000 BR FEW005 BKN006 OVC008 14/14 Q1017 YLO
  • 190555Z AUTO 02008KT 330V080 5000 BR FEW005 SCT006 OVC007 14/13 Q1017 YLO
  • 190525Z AUTO 01007KT 320V070 4000 BR SCT004 OVC005 14/13 Q1016 YLO
  • 190455Z AUTO 02005KT 300V070 3600 BR BKN003 BKN005 OVC006 14/14 Q1016 YLO
  • 190425Z AUTO 03005KT 340V070 3100 BR FEW004 OVC006 14/13 Q1016 YLO
  • 190355Z AUTO 01006KT 310V060 2100 BR OVC006 14/13 Q1015 YLO
  • 190338Z AUTO 36005KT 320V050 1900 BR FEW001 SCT007 BKN300 13/13 Q1015 YLO
  • 190325Z AUTO 36003KT 320V040 1600 BR FEW001 BKN180 13/13 Q1015 YLO
  • 190303Z AUTO 01004KT 310V040 1900 BR BKN008 BKN010 OVC190 14/13 Q1015 YLO
  • 190255Z AUTO 01004KT 320V050 1800 BR SCT000 OVC190 14/13 Q1015 RED
  • 190225Z AUTO VRB02KT 0250 FG SCT000 OVC170 13/12 Q1015 RED

TAF COR TAF EHWO
Valide du 19 à 05h jusqu'au 19 à 17h UTC


190441Z 1905/1917 01005KT 3000 BR SCT005 BKN006
BECMG 1905/1907 6000 NSW SCT012
BECMG 1907/1909 FEW016 SCT020
BECMG 1909/1911 01008G18KT



MET'MAP, la Météo Aéronautique d'un coup d'oeil ! - Copyright ORBIFLY Décembre 2007 - Disclaimer

ORBIFLY MET'MAP TEAM :

Programmation & Développement : Alexandra Zaïnal
Sur une idée originale de : Baudouin d'Aumeries
Soutien technique & logistique : Manuel Goepfert
Assistance : Marc-Olivier Méhu




SOURCES & CREDITS :

   NOAA